sensor_id;sensor_type;location;lat;lon;timestamp;P1;durP1;ratioP1;P2;durP2;ratioP2
21705;SDS011;11014;53.076;18.208;2023-04-27T00:00:39;50.70;;;19.48;;
21705;SDS011;11014;53.076;18.208;2023-04-27T00:03:17;72.70;;;23.98;;
21705;SDS011;11014;53.076;18.208;2023-04-27T00:05:47;101.15;;;31.27;;
21705;SDS011;11014;53.076;18.208;2023-04-27T00:08:16;104.75;;;31.17;;
21705;SDS011;11014;53.076;18.208;2023-04-27T00:10:45;139.82;;;35.75;;
21705;SDS011;11014;53.076;18.208;2023-04-27T00:13:13;104.05;;;29.30;;
21705;SDS011;11014;53.076;18.208;2023-04-27T00:15:42;129.02;;;33.97;;
21705;SDS011;11014;53.076;18.208;2023-04-27T00:18:12;226.65;;;55.75;;
21705;SDS011;11014;53.076;18.208;2023-04-27T00:20:41;143.98;;;40.53;;
21705;SDS011;11014;53.076;18.208;2023-04-27T00:23:09;131.23;;;39.33;;
21705;SDS011;11014;53.076;18.208;2023-04-27T00:25:38;87.20;;;26.50;;
21705;SDS011;11014;53.076;18.208;2023-04-27T00:28:07;80.82;;;25.92;;
21705;SDS011;11014;53.076;18.208;2023-04-27T00:30:36;75.07;;;23.65;;
21705;SDS011;11014;53.076;18.208;2023-04-27T00:33:04;76.22;;;23.02;;
21705;SDS011;11014;53.076;18.208;2023-04-27T00:35:33;97.63;;;28.15;;
21705;SDS011;11014;53.076;18.208;2023-04-27T00:38:02;61.92;;;20.85;;
21705;SDS011;11014;53.076;18.208;2023-04-27T00:40:33;45.17;;;15.40;;
21705;SDS011;11014;53.076;18.208;2023-04-27T00:43:02;73.60;;;22.63;;
21705;SDS011;11014;53.076;18.208;2023-04-27T00:45:31;53.00;;;19.65;;
21705;SDS011;11014;53.076;18.208;2023-04-27T00:48:00;46.78;;;17.10;;
21705;SDS011;11014;53.076;18.208;2023-04-27T00:50:29;53.35;;;18.23;;
21705;SDS011;11014;53.076;18.208;2023-04-27T00:52:58;42.28;;;14.35;;
21705;SDS011;11014;53.076;18.208;2023-04-27T00:55:29;35.85;;;13.40;;
21705;SDS011;11014;53.076;18.208;2023-04-27T00:57:57;35.42;;;14.30;;
21705;SDS011;11014;53.076;18.208;2023-04-27T01:00:26;32.83;;;12.95;;
21705;SDS011;11014;53.076;18.208;2023-04-27T01:02:56;33.03;;;12.77;;
21705;SDS011;11014;53.076;18.208;2023-04-27T01:05:25;28.55;;;11.18;;
21705;SDS011;11014;53.076;18.208;2023-04-27T01:07:54;28.83;;;11.65;;
21705;SDS011;11014;53.076;18.208;2023-04-27T01:10:22;24.60;;;11.30;;
21705;SDS011;11014;53.076;18.208;2023-04-27T01:12:52;26.33;;;13.10;;
21705;SDS011;11014;53.076;18.208;2023-04-27T01:15:21;29.40;;;13.35;;
21705;SDS011;11014;53.076;18.208;2023-04-27T01:17:56;37.42;;;13.48;;
21705;SDS011;11014;53.076;18.208;2023-04-27T01:20:28;46.85;;;16.25;;
21705;SDS011;11014;53.076;18.208;2023-04-27T01:22:57;59.83;;;19.38;;
21705;SDS011;11014;53.076;18.208;2023-04-27T01:25:27;59.83;;;20.05;;
21705;SDS011;11014;53.076;18.208;2023-04-27T01:27:55;62.63;;;22.05;;
21705;SDS011;11014;53.076;18.208;2023-04-27T01:30:24;58.47;;;22.00;;
21705;SDS011;11014;53.076;18.208;2023-04-27T01:32:53;58.88;;;21.75;;
21705;SDS011;11014;53.076;18.208;2023-04-27T01:35:22;61.42;;;21.83;;
21705;SDS011;11014;53.076;18.208;2023-04-27T01:37:53;64.57;;;23.23;;
21705;SDS011;11014;53.076;18.208;2023-04-27T01:40:23;60.78;;;24.67;;
21705;SDS011;11014;53.076;18.208;2023-04-27T01:42:53;51.85;;;20.77;;
21705;SDS011;11014;53.076;18.208;2023-04-27T01:45:22;43.63;;;19.67;;
21705;SDS011;11014;53.076;18.208;2023-04-27T01:47:51;40.88;;;19.50;;
21705;SDS011;11014;53.076;18.208;2023-04-27T01:50:21;35.30;;;16.88;;
21705;SDS011;11014;53.076;18.208;2023-04-27T01:52:49;23.63;;;12.25;;
21705;SDS011;11014;53.076;18.208;2023-04-27T01:55:18;23.00;;;11.93;;
21705;SDS011;11014;53.076;18.208;2023-04-27T01:57:47;24.02;;;10.65;;
21705;SDS011;11014;53.076;18.208;2023-04-27T02:00:16;18.15;;;9.90;;
21705;SDS011;11014;53.076;18.208;2023-04-27T02:02:48;19.98;;;10.07;;
21705;SDS011;11014;53.076;18.208;2023-04-27T02:05:22;18.45;;;9.35;;
21705;SDS011;11014;53.076;18.208;2023-04-27T02:07:52;20.55;;;9.70;;
21705;SDS011;11014;53.076;18.208;2023-04-27T02:10:23;18.60;;;9.65;;
21705;SDS011;11014;53.076;18.208;2023-04-27T02:12:55;16.58;;;9.02;;
21705;SDS011;11014;53.076;18.208;2023-04-27T02:15:25;17.88;;;9.10;;
21705;SDS011;11014;53.076;18.208;2023-04-27T02:17:53;18.02;;;8.98;;
21705;SDS011;11014;53.076;18.208;2023-04-27T02:20:22;20.17;;;9.98;;
21705;SDS011;11014;53.076;18.208;2023-04-27T02:22:53;19.10;;;10.25;;
21705;SDS011;11014;53.076;18.208;2023-04-27T02:25:26;17.05;;;8.60;;
21705;SDS011;11014;53.076;18.208;2023-04-27T02:27:55;15.93;;;9.18;;
21705;SDS011;11014;53.076;18.208;2023-04-27T02:30:25;20.75;;;10.00;;
21705;SDS011;11014;53.076;18.208;2023-04-27T02:33:00;17.85;;;8.88;;
21705;SDS011;11014;53.076;18.208;2023-04-27T02:35:31;17.08;;;9.32;;
21705;SDS011;11014;53.076;18.208;2023-04-27T02:38:00;21.70;;;9.10;;
21705;SDS011;11014;53.076;18.208;2023-04-27T02:40:30;22.95;;;9.77;;
21705;SDS011;11014;53.076;18.208;2023-04-27T02:42:58;25.17;;;9.38;;
21705;SDS011;11014;53.076;18.208;2023-04-27T02:45:28;22.23;;;9.27;;
21705;SDS011;11014;53.076;18.208;2023-04-27T02:47:59;19.60;;;9.90;;
21705;SDS011;11014;53.076;18.208;2023-04-27T02:50:28;19.95;;;9.18;;
21705;SDS011;11014;53.076;18.208;2023-04-27T02:52:56;21.10;;;9.80;;
21705;SDS011;11014;53.076;18.208;2023-04-27T02:55:27;14.27;;;9.00;;
21705;SDS011;11014;53.076;18.208;2023-04-27T02:57:57;19.30;;;10.35;;
21705;SDS011;11014;53.076;18.208;2023-04-27T03:00:25;18.90;;;10.10;;
21705;SDS011;11014;53.076;18.208;2023-04-27T03:02:54;25.92;;;11.68;;
21705;SDS011;11014;53.076;18.208;2023-04-27T03:05:24;20.10;;;10.48;;
21705;SDS011;11014;53.076;18.208;2023-04-27T03:07:55;23.45;;;10.93;;
21705;SDS011;11014;53.076;18.208;2023-04-27T03:10:25;21.30;;;9.63;;
21705;SDS011;11014;53.076;18.208;2023-04-27T03:12:53;17.08;;;9.52;;
21705;SDS011;11014;53.076;18.208;2023-04-27T03:15:22;17.42;;;9.98;;
21705;SDS011;11014;53.076;18.208;2023-04-27T03:17:50;18.55;;;10.15;;
21705;SDS011;11014;53.076;18.208;2023-04-27T03:20:20;21.73;;;9.90;;
21705;SDS011;11014;53.076;18.208;2023-04-27T03:22:50;17.55;;;9.60;;
21705;SDS011;11014;53.076;18.208;2023-04-27T03:25:20;18.98;;;9.93;;
21705;SDS011;11014;53.076;18.208;2023-04-27T03:27:48;13.95;;;8.43;;
21705;SDS011;11014;53.076;18.208;2023-04-27T03:30:22;15.57;;;8.82;;
21705;SDS011;11014;53.076;18.208;2023-04-27T03:32:50;16.55;;;9.43;;
21705;SDS011;11014;53.076;18.208;2023-04-27T03:35:19;12.95;;;8.55;;
21705;SDS011;11014;53.076;18.208;2023-04-27T03:37:48;16.63;;;9.30;;
21705;SDS011;11014;53.076;18.208;2023-04-27T03:40:17;17.48;;;9.20;;
21705;SDS011;11014;53.076;18.208;2023-04-27T03:42:46;16.60;;;8.95;;
21705;SDS011;11014;53.076;18.208;2023-04-27T03:45:15;14.43;;;8.88;;
21705;SDS011;11014;53.076;18.208;2023-04-27T03:47:46;18.40;;;9.18;;
21705;SDS011;11014;53.076;18.208;2023-04-27T03:50:15;15.98;;;8.30;;
21705;SDS011;11014;53.076;18.208;2023-04-27T03:52:45;17.55;;;7.95;;
21705;SDS011;11014;53.076;18.208;2023-04-27T03:55:15;11.32;;;7.80;;
21705;SDS011;11014;53.076;18.208;2023-04-27T03:57:44;12.05;;;7.95;;
21705;SDS011;11014;53.076;18.208;2023-04-27T04:00:13;15.25;;;8.20;;
21705;SDS011;11014;53.076;18.208;2023-04-27T04:02:41;15.82;;;7.60;;
21705;SDS011;11014;53.076;18.208;2023-04-27T04:05:12;12.80;;;8.35;;
21705;SDS011;11014;53.076;18.208;2023-04-27T04:07:43;14.38;;;7.78;;
21705;SDS011;11014;53.076;18.208;2023-04-27T04:10:16;14.93;;;8.25;;
21705;SDS011;11014;53.076;18.208;2023-04-27T04:12:46;11.85;;;7.85;;
21705;SDS011;11014;53.076;18.208;2023-04-27T04:15:14;18.35;;;8.18;;
21705;SDS011;11014;53.076;18.208;2023-04-27T04:17:43;13.23;;;8.45;;
21705;SDS011;11014;53.076;18.208;2023-04-27T04:20:13;17.30;;;8.55;;
21705;SDS011;11014;53.076;18.208;2023-04-27T04:22:42;14.30;;;8.80;;
21705;SDS011;11014;53.076;18.208;2023-04-27T04:28:07;13.85;;;8.02;;
21705;SDS011;11014;53.076;18.208;2023-04-27T04:30:36;22.13;;;9.43;;
21705;SDS011;11014;53.076;18.208;2023-04-27T04:33:06;16.73;;;9.52;;
21705;SDS011;11014;53.076;18.208;2023-04-27T04:35:37;17.20;;;9.27;;
21705;SDS011;11014;53.076;18.208;2023-04-27T04:38:05;13.55;;;8.00;;
21705;SDS011;11014;53.076;18.208;2023-04-27T04:40:34;13.02;;;8.18;;
21705;SDS011;11014;53.076;18.208;2023-04-27T04:43:04;11.75;;;8.32;;
21705;SDS011;11014;53.076;18.208;2023-04-27T04:45:34;13.20;;;8.52;;
21705;SDS011;11014;53.076;18.208;2023-04-27T04:48:02;14.15;;;7.85;;
21705;SDS011;11014;53.076;18.208;2023-04-27T04:50:31;16.08;;;7.90;;
21705;SDS011;11014;53.076;18.208;2023-04-27T04:52:59;16.50;;;7.70;;
21705;SDS011;11014;53.076;18.208;2023-04-27T04:55:28;17.25;;;8.25;;
21705;SDS011;11014;53.076;18.208;2023-04-27T04:57:57;16.73;;;8.48;;
21705;SDS011;11014;53.076;18.208;2023-04-27T05:00:28;14.80;;;8.27;;
21705;SDS011;11014;53.076;18.208;2023-04-27T05:02:56;14.30;;;7.60;;
21705;SDS011;11014;53.076;18.208;2023-04-27T05:05:26;18.23;;;7.97;;
21705;SDS011;11014;53.076;18.208;2023-04-27T05:07:54;12.77;;;7.32;;
21705;SDS011;11014;53.076;18.208;2023-04-27T05:10:23;11.23;;;7.20;;
21705;SDS011;11014;53.076;18.208;2023-04-27T05:12:51;9.52;;;6.30;;
21705;SDS011;11014;53.076;18.208;2023-04-27T05:15:20;15.07;;;6.60;;
21705;SDS011;11014;53.076;18.208;2023-04-27T05:17:48;9.80;;;5.88;;
21705;SDS011;11014;53.076;18.208;2023-04-27T05:20:17;10.45;;;6.53;;
21705;SDS011;11014;53.076;18.208;2023-04-27T05:22:46;8.98;;;5.43;;
21705;SDS011;11014;53.076;18.208;2023-04-27T05:25:15;5.80;;;3.72;;
21705;SDS011;11014;53.076;18.208;2023-04-27T05:27:43;7.60;;;4.70;;
21705;SDS011;11014;53.076;18.208;2023-04-27T05:30:12;11.30;;;5.20;;
21705;SDS011;11014;53.076;18.208;2023-04-27T05:32:41;9.52;;;5.65;;
21705;SDS011;11014;53.076;18.208;2023-04-27T05:35:09;10.85;;;6.80;;
21705;SDS011;11014;53.076;18.208;2023-04-27T05:37:43;12.88;;;5.78;;
21705;SDS011;11014;53.076;18.208;2023-04-27T05:40:13;13.00;;;7.70;;
21705;SDS011;11014;53.076;18.208;2023-04-27T05:42:44;12.90;;;6.32;;
21705;SDS011;11014;53.076;18.208;2023-04-27T05:45:14;14.27;;;6.10;;
21705;SDS011;11014;53.076;18.208;2023-04-27T05:47:42;13.45;;;5.80;;
21705;SDS011;11014;53.076;18.208;2023-04-27T05:50:11;11.68;;;5.70;;
21705;SDS011;11014;53.076;18.208;2023-04-27T05:52:40;10.77;;;5.63;;
21705;SDS011;11014;53.076;18.208;2023-04-27T05:55:09;9.50;;;4.32;;
21705;SDS011;11014;53.076;18.208;2023-04-27T05:57:37;7.20;;;3.08;;
21705;SDS011;11014;53.076;18.208;2023-04-27T06:00:07;8.18;;;4.63;;
21705;SDS011;11014;53.076;18.208;2023-04-27T06:02:40;7.47;;;3.33;;
21705;SDS011;11014;53.076;18.208;2023-04-27T06:05:09;11.07;;;3.88;;
21705;SDS011;11014;53.076;18.208;2023-04-27T06:07:38;14.20;;;5.22;;
21705;SDS011;11014;53.076;18.208;2023-04-27T06:10:06;9.15;;;5.10;;
21705;SDS011;11014;53.076;18.208;2023-04-27T06:12:36;9.80;;;4.47;;
21705;SDS011;11014;53.076;18.208;2023-04-27T06:15:04;10.18;;;4.55;;
21705;SDS011;11014;53.076;18.208;2023-04-27T06:17:37;11.45;;;4.60;;
21705;SDS011;11014;53.076;18.208;2023-04-27T06:20:06;10.60;;;4.75;;
21705;SDS011;11014;53.076;18.208;2023-04-27T06:22:36;8.60;;;4.70;;
21705;SDS011;11014;53.076;18.208;2023-04-27T06:25:06;7.25;;;4.45;;
21705;SDS011;11014;53.076;18.208;2023-04-27T06:27:34;9.38;;;4.82;;
21705;SDS011;11014;53.076;18.208;2023-04-27T06:30:04;7.40;;;3.35;;
21705;SDS011;11014;53.076;18.208;2023-04-27T06:32:33;7.93;;;3.50;;
21705;SDS011;11014;53.076;18.208;2023-04-27T06:35:01;7.68;;;3.50;;
21705;SDS011;11014;53.076;18.208;2023-04-27T06:37:30;7.57;;;4.35;;
21705;SDS011;11014;53.076;18.208;2023-04-27T06:40:00;10.15;;;3.97;;
21705;SDS011;11014;53.076;18.208;2023-04-27T06:42:28;7.82;;;3.80;;
21705;SDS011;11014;53.076;18.208;2023-04-27T06:44:57;7.80;;;2.85;;
21705;SDS011;11014;53.076;18.208;2023-04-27T06:47:26;9.70;;;3.97;;
21705;SDS011;11014;53.076;18.208;2023-04-27T06:49:55;9.32;;;2.47;;
21705;SDS011;11014;53.076;18.208;2023-04-27T06:52:23;7.70;;;2.80;;
21705;SDS011;11014;53.076;18.208;2023-04-27T06:54:52;7.00;;;3.15;;
21705;SDS011;11014;53.076;18.208;2023-04-27T06:57:21;8.90;;;3.75;;
21705;SDS011;11014;53.076;18.208;2023-04-27T06:59:50;3.22;;;2.22;;
21705;SDS011;11014;53.076;18.208;2023-04-27T07:02:18;7.45;;;2.22;;
21705;SDS011;11014;53.076;18.208;2023-04-27T07:04:48;6.88;;;2.22;;
21705;SDS011;11014;53.076;18.208;2023-04-27T07:07:18;2.35;;;1.13;;
21705;SDS011;11014;53.076;18.208;2023-04-27T07:09:46;7.50;;;3.15;;
21705;SDS011;11014;53.076;18.208;2023-04-27T07:12:14;5.28;;;2.80;;
21705;SDS011;11014;53.076;18.208;2023-04-27T07:14:45;5.50;;;2.85;;
21705;SDS011;11014;53.076;18.208;2023-04-27T07:17:13;6.72;;;3.30;;
21705;SDS011;11014;53.076;18.208;2023-04-27T07:19:42;9.05;;;4.93;;
21705;SDS011;11014;53.076;18.208;2023-04-27T07:22:10;6.85;;;3.35;;
21705;SDS011;11014;53.076;18.208;2023-04-27T07:24:38;7.82;;;3.13;;
21705;SDS011;11014;53.076;18.208;2023-04-27T07:27:07;90.93;;;45.90;;
21705;SDS011;11014;53.076;18.208;2023-04-27T07:29:35;10.20;;;5.25;;
21705;SDS011;11014;53.076;18.208;2023-04-27T07:32:05;17.27;;;10.27;;
21705;SDS011;11014;53.076;18.208;2023-04-27T07:34:35;10.20;;;4.93;;
21705;SDS011;11014;53.076;18.208;2023-04-27T07:37:19;5.40;;;2.40;;
21705;SDS011;11014;53.076;18.208;2023-04-27T07:39:48;6.53;;;2.72;;
21705;SDS011;11014;53.076;18.208;2023-04-27T07:42:19;5.35;;;2.83;;
21705;SDS011;11014;53.076;18.208;2023-04-27T07:44:52;9.52;;;5.90;;
21705;SDS011;11014;53.076;18.208;2023-04-27T07:47:21;6.72;;;3.17;;
21705;SDS011;11014;53.076;18.208;2023-04-27T07:49:50;5.88;;;2.47;;
21705;SDS011;11014;53.076;18.208;2023-04-27T07:52:19;7.90;;;2.95;;
21705;SDS011;11014;53.076;18.208;2023-04-27T07:54:48;5.70;;;2.65;;
21705;SDS011;11014;53.076;18.208;2023-04-27T07:57:17;8.35;;;2.38;;
21705;SDS011;11014;53.076;18.208;2023-04-27T07:59:46;6.10;;;2.38;;
21705;SDS011;11014;53.076;18.208;2023-04-27T08:02:15;5.15;;;2.78;;
21705;SDS011;11014;53.076;18.208;2023-04-27T08:04:48;11.73;;;4.28;;
21705;SDS011;11014;53.076;18.208;2023-04-27T08:07:18;5.25;;;2.53;;
21705;SDS011;11014;53.076;18.208;2023-04-27T08:09:49;11.20;;;4.97;;
21705;SDS011;11014;53.076;18.208;2023-04-27T08:14:47;3.63;;;1.80;;
21705;SDS011;11014;53.076;18.208;2023-04-27T08:17:16;6.03;;;2.30;;
21705;SDS011;11014;53.076;18.208;2023-04-27T08:19:45;4.43;;;2.13;;
21705;SDS011;11014;53.076;18.208;2023-04-27T08:22:14;5.18;;;2.17;;
21705;SDS011;11014;53.076;18.208;2023-04-27T08:24:42;4.65;;;2.35;;
21705;SDS011;11014;53.076;18.208;2023-04-27T08:27:11;4.53;;;2.22;;
21705;SDS011;11014;53.076;18.208;2023-04-27T08:29:43;3.67;;;1.88;;
21705;SDS011;11014;53.076;18.208;2023-04-27T08:32:14;7.05;;;4.30;;
21705;SDS011;11014;53.076;18.208;2023-04-27T08:34:43;3.22;;;1.70;;
21705;SDS011;11014;53.076;18.208;2023-04-27T08:37:13;4.13;;;1.55;;
21705;SDS011;11014;53.076;18.208;2023-04-27T08:39:42;5.28;;;2.40;;
21705;SDS011;11014;53.076;18.208;2023-04-27T08:42:11;11.55;;;5.55;;
21705;SDS011;11014;53.076;18.208;2023-04-27T08:44:41;13.65;;;8.50;;
21705;SDS011;11014;53.076;18.208;2023-04-27T08:47:10;6.30;;;4.22;;
21705;SDS011;11014;53.076;18.208;2023-04-27T08:49:39;4.43;;;1.77;;
21705;SDS011;11014;53.076;18.208;2023-04-27T08:52:11;3.55;;;1.95;;
21705;SDS011;11014;53.076;18.208;2023-04-27T08:54:41;4.05;;;1.88;;
21705;SDS011;11014;53.076;18.208;2023-04-27T08:57:10;3.58;;;2.10;;
21705;SDS011;11014;53.076;18.208;2023-04-27T08:59:40;5.75;;;1.77;;
21705;SDS011;11014;53.076;18.208;2023-04-27T09:02:20;3.85;;;1.95;;
21705;SDS011;11014;53.076;18.208;2023-04-27T09:04:49;5.32;;;2.88;;
21705;SDS011;11014;53.076;18.208;2023-04-27T09:07:18;3.80;;;2.35;;
21705;SDS011;11014;53.076;18.208;2023-04-27T09:09:47;4.43;;;1.80;;
21705;SDS011;11014;53.076;18.208;2023-04-27T09:12:17;6.20;;;2.78;;
21705;SDS011;11014;53.076;18.208;2023-04-27T09:14:59;5.63;;;2.60;;
21705;SDS011;11014;53.076;18.208;2023-04-27T09:17:30;4.38;;;2.00;;
21705;SDS011;11014;53.076;18.208;2023-04-27T09:20:04;3.50;;;1.90;;
21705;SDS011;11014;53.076;18.208;2023-04-27T09:22:52;2.47;;;1.50;;
21705;SDS011;11014;53.076;18.208;2023-04-27T09:25:26;5.88;;;2.47;;
21705;SDS011;11014;53.076;18.208;2023-04-27T09:27:56;8.00;;;2.08;;
21705;SDS011;11014;53.076;18.208;2023-04-27T09:30:27;5.70;;;2.50;;
21705;SDS011;11014;53.076;18.208;2023-04-27T09:32:57;3.35;;;2.28;;
21705;SDS011;11014;53.076;18.208;2023-04-27T09:35:31;8.05;;;2.40;;
21705;SDS011;11014;53.076;18.208;2023-04-27T09:38:00;3.08;;;2.30;;
21705;SDS011;11014;53.076;18.208;2023-04-27T09:40:29;6.00;;;3.50;;
21705;SDS011;11014;53.076;18.208;2023-04-27T09:42:58;3.35;;;1.90;;
21705;SDS011;11014;53.076;18.208;2023-04-27T09:45:32;3.88;;;2.42;;
21705;SDS011;11014;53.076;18.208;2023-04-27T09:48:00;1.67;;;1.20;;
21705;SDS011;11014;53.076;18.208;2023-04-27T09:50:42;7.22;;;2.65;;
21705;SDS011;11014;53.076;18.208;2023-04-27T09:53:12;4.78;;;2.40;;
21705;SDS011;11014;53.076;18.208;2023-04-27T09:55:45;6.75;;;3.35;;
21705;SDS011;11014;53.076;18.208;2023-04-27T09:58:30;7.65;;;3.13;;
21705;SDS011;11014;53.076;18.208;2023-04-27T10:04:18;3.50;;;1.48;;
21705;SDS011;11014;53.076;18.208;2023-04-27T10:07:08;5.72;;;2.97;;
21705;SDS011;11014;53.076;18.208;2023-04-27T10:09:43;4.03;;;2.38;;
21705;SDS011;11014;53.076;18.208;2023-04-27T10:17:29;5.68;;;2.05;;
21705;SDS011;11014;53.076;18.208;2023-04-27T10:20:02;4.50;;;1.90;;
21705;SDS011;11014;53.076;18.208;2023-04-27T10:22:39;5.47;;;1.83;;
21705;SDS011;11014;53.076;18.208;2023-04-27T10:25:12;5.70;;;3.58;;
21705;SDS011;11014;53.076;18.208;2023-04-27T10:27:40;10.15;;;5.22;;
21705;SDS011;11014;53.076;18.208;2023-04-27T10:30:10;8.13;;;5.35;;
21705;SDS011;11014;53.076;18.208;2023-04-27T10:32:48;6.75;;;3.58;;
21705;SDS011;11014;53.076;18.208;2023-04-27T10:35:22;4.30;;;1.85;;
21705;SDS011;11014;53.076;18.208;2023-04-27T10:38:06;7.07;;;3.38;;
21705;SDS011;11014;53.076;18.208;2023-04-27T10:40:36;2.40;;;1.40;;
21705;SDS011;11014;53.076;18.208;2023-04-27T10:43:09;2.17;;;1.42;;
21705;SDS011;11014;53.076;18.208;2023-04-27T10:45:39;4.10;;;2.00;;
21705;SDS011;11014;53.076;18.208;2023-04-27T10:48:11;1.05;;;0.93;;
21705;SDS011;11014;53.076;18.208;2023-04-27T10:50:41;2.20;;;1.35;;
21705;SDS011;11014;53.076;18.208;2023-04-27T10:53:12;2.05;;;1.45;;
21705;SDS011;11014;53.076;18.208;2023-04-27T10:55:42;6.30;;;2.10;;
21705;SDS011;11014;53.076;18.208;2023-04-27T10:58:11;5.70;;;1.85;;
21705;SDS011;11014;53.076;18.208;2023-04-27T11:00:39;2.67;;;2.05;;
21705;SDS011;11014;53.076;18.208;2023-04-27T11:03:15;3.13;;;2.05;;
21705;SDS011;11014;53.076;18.208;2023-04-27T11:05:47;4.50;;;2.10;;
21705;SDS011;11014;53.076;18.208;2023-04-27T11:08:17;3.28;;;2.40;;
21705;SDS011;11014;53.076;18.208;2023-04-27T11:10:48;3.22;;;1.70;;
21705;SDS011;11014;53.076;18.208;2023-04-27T11:13:19;4.18;;;1.48;;
21705;SDS011;11014;53.076;18.208;2023-04-27T11:15:50;2.65;;;1.40;;
21705;SDS011;11014;53.076;18.208;2023-04-27T11:18:24;2.97;;;1.55;;
21705;SDS011;11014;53.076;18.208;2023-04-27T11:20:54;3.42;;;1.67;;
21705;SDS011;11014;53.076;18.208;2023-04-27T11:23:41;2.60;;;1.35;;
21705;SDS011;11014;53.076;18.208;2023-04-27T11:26:10;4.60;;;1.50;;
21705;SDS011;11014;53.076;18.208;2023-04-27T11:28:57;4.63;;;1.65;;
21705;SDS011;11014;53.076;18.208;2023-04-27T11:31:43;3.40;;;1.85;;
21705;SDS011;11014;53.076;18.208;2023-04-27T11:34:17;3.60;;;1.70;;
21705;SDS011;11014;53.076;18.208;2023-04-27T11:36:59;5.47;;;2.00;;
21705;SDS011;11014;53.076;18.208;2023-04-27T11:39:45;3.95;;;1.83;;
21705;SDS011;11014;53.076;18.208;2023-04-27T11:42:15;2.63;;;1.60;;
21705;SDS011;11014;53.076;18.208;2023-04-27T11:44:53;5.15;;;1.75;;
21705;SDS011;11014;53.076;18.208;2023-04-27T11:47:29;2.80;;;1.95;;
21705;SDS011;11014;53.076;18.208;2023-04-27T11:50:00;1.83;;;1.45;;
21705;SDS011;11014;53.076;18.208;2023-04-27T11:52:33;4.15;;;2.28;;
21705;SDS011;11014;53.076;18.208;2023-04-27T11:55:03;3.50;;;1.48;;
21705;SDS011;11014;53.076;18.208;2023-04-27T11:57:33;2.92;;;1.83;;
21705;SDS011;11014;53.076;18.208;2023-04-27T12:00:04;4.40;;;2.25;;
21705;SDS011;11014;53.076;18.208;2023-04-27T12:02:42;4.10;;;1.58;;
21705;SDS011;11014;53.076;18.208;2023-04-27T12:05:11;3.10;;;1.60;;
21705;SDS011;11014;53.076;18.208;2023-04-27T12:07:41;2.65;;;1.38;;
21705;SDS011;11014;53.076;18.208;2023-04-27T12:10:10;3.35;;;1.80;;
21705;SDS011;11014;53.076;18.208;2023-04-27T12:12:39;1.88;;;1.45;;
21705;SDS011;11014;53.076;18.208;2023-04-27T12:15:08;3.25;;;1.70;;
21705;SDS011;11014;53.076;18.208;2023-04-27T12:17:37;2.15;;;1.33;;
21705;SDS011;11014;53.076;18.208;2023-04-27T12:22:37;3.67;;;1.50;;
21705;SDS011;11014;53.076;18.208;2023-04-27T12:25:06;5.07;;;1.80;;
21705;SDS011;11014;53.076;18.208;2023-04-27T12:27:35;2.72;;;1.52;;
21705;SDS011;11014;53.076;18.208;2023-04-27T12:30:03;3.97;;;1.95;;
21705;SDS011;11014;53.076;18.208;2023-04-27T12:32:32;3.45;;;1.70;;
21705;SDS011;11014;53.076;18.208;2023-04-27T12:35:02;2.28;;;1.63;;
21705;SDS011;11014;53.076;18.208;2023-04-27T12:37:31;3.83;;;1.60;;
21705;SDS011;11014;53.076;18.208;2023-04-27T12:44:52;1.75;;;1.30;;
21705;SDS011;11014;53.076;18.208;2023-04-27T12:47:22;4.70;;;1.70;;
21705;SDS011;11014;53.076;18.208;2023-04-27T12:49:54;5.30;;;2.53;;
21705;SDS011;11014;53.076;18.208;2023-04-27T12:52:24;4.22;;;2.75;;
21705;SDS011;11014;53.076;18.208;2023-04-27T12:54:54;5.97;;;2.70;;
21705;SDS011;11014;53.076;18.208;2023-04-27T12:57:26;5.90;;;2.28;;
21705;SDS011;11014;53.076;18.208;2023-04-27T12:59:54;5.45;;;1.63;;
21705;SDS011;11014;53.076;18.208;2023-04-27T13:02:23;6.82;;;3.05;;
21705;SDS011;11014;53.076;18.208;2023-04-27T13:07:24;3.80;;;2.00;;
21705;SDS011;11014;53.076;18.208;2023-04-27T13:09:52;2.75;;;1.70;;
21705;SDS011;11014;53.076;18.208;2023-04-27T13:12:31;2.72;;;1.50;;
21705;SDS011;11014;53.076;18.208;2023-04-27T13:15:00;3.97;;;1.90;;
21705;SDS011;11014;53.076;18.208;2023-04-27T13:17:29;4.00;;;2.13;;
21705;SDS011;11014;53.076;18.208;2023-04-27T13:20:04;6.93;;;3.08;;
21705;SDS011;11014;53.076;18.208;2023-04-27T13:22:36;4.90;;;2.40;;
21705;SDS011;11014;53.076;18.208;2023-04-27T13:25:08;5.53;;;2.65;;
21705;SDS011;11014;53.076;18.208;2023-04-27T13:27:38;3.85;;;2.17;;
21705;SDS011;11014;53.076;18.208;2023-04-27T13:30:07;3.45;;;2.05;;
21705;SDS011;11014;53.076;18.208;2023-04-27T13:32:38;7.00;;;2.35;;
21705;SDS011;11014;53.076;18.208;2023-04-27T13:35:06;4.35;;;1.63;;
21705;SDS011;11014;53.076;18.208;2023-04-27T13:37:36;3.42;;;1.60;;
21705;SDS011;11014;53.076;18.208;2023-04-27T13:40:05;4.47;;;2.05;;
21705;SDS011;11014;53.076;18.208;2023-04-27T13:42:45;4.55;;;3.15;;
21705;SDS011;11014;53.076;18.208;2023-04-27T13:45:13;3.20;;;2.05;;
21705;SDS011;11014;53.076;18.208;2023-04-27T13:47:42;4.80;;;1.92;;
21705;SDS011;11014;53.076;18.208;2023-04-27T13:50:11;2.38;;;1.45;;
21705;SDS011;11014;53.076;18.208;2023-04-27T13:52:40;4.80;;;1.83;;
21705;SDS011;11014;53.076;18.208;2023-04-27T13:55:09;3.78;;;1.65;;
21705;SDS011;11014;53.076;18.208;2023-04-27T13:57:38;13.10;;;3.85;;
21705;SDS011;11014;53.076;18.208;2023-04-27T14:00:07;39.72;;;4.95;;
21705;SDS011;11014;53.076;18.208;2023-04-27T14:02:38;4.30;;;1.95;;
21705;SDS011;11014;53.076;18.208;2023-04-27T14:05:07;8.45;;;2.75;;
21705;SDS011;11014;53.076;18.208;2023-04-27T14:07:36;9.60;;;2.70;;
21705;SDS011;11014;53.076;18.208;2023-04-27T14:10:05;10.25;;;3.33;;
21705;SDS011;11014;53.076;18.208;2023-04-27T14:12:35;4.93;;;2.80;;
21705;SDS011;11014;53.076;18.208;2023-04-27T14:15:04;6.15;;;2.47;;
21705;SDS011;11014;53.076;18.208;2023-04-27T14:17:35;4.28;;;3.17;;
21705;SDS011;11014;53.076;18.208;2023-04-27T14:20:04;7.35;;;4.25;;
21705;SDS011;11014;53.076;18.208;2023-04-27T14:27:20;4.10;;;2.50;;
21705;SDS011;11014;53.076;18.208;2023-04-27T14:35:38;5.75;;;4.22;;
21705;SDS011;11014;53.076;18.208;2023-04-27T14:38:07;4.05;;;2.50;;
21705;SDS011;11014;53.076;18.208;2023-04-27T14:40:36;3.35;;;2.10;;
21705;SDS011;11014;53.076;18.208;2023-04-27T14:43:04;3.08;;;1.90;;
21705;SDS011;11014;53.076;18.208;2023-04-27T14:45:33;6.22;;;2.53;;
21705;SDS011;11014;53.076;18.208;2023-04-27T14:48:14;7.05;;;2.75;;
21705;SDS011;11014;53.076;18.208;2023-04-27T14:50:43;6.97;;;3.20;;
21705;SDS011;11014;53.076;18.208;2023-04-27T14:53:12;8.55;;;2.63;;
21705;SDS011;11014;53.076;18.208;2023-04-27T14:55:43;3.15;;;1.98;;
21705;SDS011;11014;53.076;18.208;2023-04-27T14:58:12;3.75;;;2.30;;
21705;SDS011;11014;53.076;18.208;2023-04-27T15:00:41;6.50;;;3.50;;
21705;SDS011;11014;53.076;18.208;2023-04-27T15:03:10;5.50;;;3.67;;
21705;SDS011;11014;53.076;18.208;2023-04-27T15:05:43;3.88;;;2.60;;
21705;SDS011;11014;53.076;18.208;2023-04-27T15:08:13;8.15;;;3.00;;
21705;SDS011;11014;53.076;18.208;2023-04-27T15:10:44;3.22;;;2.10;;
21705;SDS011;11014;53.076;18.208;2023-04-27T15:13:13;3.63;;;1.70;;
21705;SDS011;11014;53.076;18.208;2023-04-27T15:15:41;3.05;;;2.08;;
21705;SDS011;11014;53.076;18.208;2023-04-27T15:18:13;3.80;;;2.03;;